Latest Coastal Weather Observations for Cape Flattery

IDQ60701

Issued at 4:22 pm EST Tuesday 16 August 2022 (issued every 10 minutes, with the page automatically refreshed every 10 minutes)

About coastal observations | Map of coastal stations | Coastal observations for QLD | Marine services | Other Formats
Station Details ID: 031213 Name: CAPE FLATTERY Lat: -14.97 Lon: 145.31 Height: 18.5 m
Data from the previous 72 hours. | See also: Recent months at Cape Flattery
Date/Time
EST
Wind Sea
Height
m
Swell Vis
km
Cloud Weather Temp
°C
Press
MSL
hPa
Rain since
9am
mm
Dir  Spd
kts
Gust
kts
Height
m
Period
s
Dir
16/04:00pm ESE 10 15 - - - - - - - 25.9 1011.8 0.0
16/03:30pm SE 12 16 - - - - - - - 25.8 1011.9 0.0
16/03:00pm ESE 11 15 - - - - - - - 26.4 1012.1 0.0
16/02:30pm SE 11 15 - - - - - - - 26.3 1012.5 0.0
16/02:00pm SE 11 15 - - - - - - - 26.6 1013.0 0.0
16/01:30pm SE 11 16 - - - - - - - 26.8 1013.6 0.0
16/01:00pm SSE 12 17 - - - - - - - 26.5 1014.1 0.0
16/12:30pm SSE 11 16 - - - - - - - 26.9 1014.6 0.0
16/12:00pm SSE 13 16 - - - - - - - 26.8 1015.1 0.0
16/11:30am SSE 13 17 - - - - - - - 26.6 1015.4 0.0
16/11:00am SSE 12 17 - - - - - - - 26.3 1015.7 0.0
16/10:30am SSE 14 18 - - - - - - - 26.0 1015.9 0.0
16/10:00am SSE 14 17 - - - - - - - 26.2 1016.0 0.0
16/09:30am SE 13 17 - - - - - - - 25.0 1015.9 0.0
16/09:00am SE 11 16 - - - - - - - 26.4 1015.4 0.0
16/08:30am SE 9 13 - - - - - - - 24.7 1015.3 0.0
16/08:00am SE 9 13 - - - - - - - 24.4 1015.0 0.0
16/07:30am SSE 10 13 - - - - - - - 23.4 1014.6 0.0
16/07:00am SE 7 10 - - - - - - - 22.1 1014.3 0.0
16/06:30am SE 8 11 - - - - - - - 22.1 1013.8 0.0
16/06:00am SE 8 11 - - - - - - - 22.1 1013.4 0.0
16/05:30am SE 9 13 - - - - - - - 22.5 1013.1 0.0
16/05:00am SE 10 14 - - - - - - - 23.1 1012.9 0.0
16/04:30am SSE 9 13 - - - - - - - 22.9 1012.9 0.0
16/04:00am SE 6 9 - - - - - - - 22.2 1012.8 0.0
16/03:30am ESE 5 6 - - - - - - - 20.6 1012.8 0.0
16/03:00am SE 5 9 - - - - - - - 21.4 1013.0 0.0
16/02:30am SE 6 8 - - - - - - - 21.6 1013.1 0.0
16/02:00am SE 7 9 - - - - - - - 22.0 1013.1 0.0
16/01:30am SE 7 10 - - - - - - - 22.3 1013.3 0.0
16/01:00am SSE 9 13 - - - - - - - 22.8 1013.6 0.0
16/12:30am SE 10 13 - - - - - - - 23.0 1013.6 0.0
16/12:00am SE 11 14 - - - - - - - 23.5 1013.7 0.0
 
Date/Time
EST
Wind Sea
Height
m
Swell Vis
km
Cloud Weather Temp
°C
Press
MSL
hPa
Rain since
9am
mm
Dir  Spd
kts
Gust
kts
Height
m
Period
s
Dir
15/11:30pm SE 11 15 - - - - - - - 23.6 1013.8 0.0
15/11:00pm SE 10 13 - - - - - - - 23.4 1013.7 0.0
15/10:30pm SE 10 13 - - - - - - - 23.2 1013.6 0.0
15/10:00pm SE 10 14 - - - - - - - 23.0 1013.6 0.0
15/09:30pm SE 10 14 - - - - - - - 23.0 1013.6 0.0
15/09:00pm SE 9 13 - - - - - - - 23.0 1013.4 0.0
15/08:30pm SE 8 11 - - - - - - - 23.0 1013.2 0.0
15/08:00pm SE 8 12 - - - - - - - 22.9 1012.9 0.0
15/07:30pm SE 9 11 - - - - - - - 23.0 1012.6 0.0
15/07:00pm SSE 9 11 - - - - - - - 23.2 1012.3 0.0
15/06:30pm SE 9 13 - - - - - - - 23.3 1012.1 0.0
15/06:00pm SE 11 15 - - - - - - - 23.6 1011.8 0.0
15/05:30pm SE 11 15 - - - - - - - 24.2 1011.7 0.0
15/05:00pm SE 13 17 - - - - - - - 24.7 1011.6 0.0
15/04:30pm SE 15 19 - - - - - - - 25.2 1011.5 0.0
15/04:00pm SSE 15 20 - - - - - - - 25.5 1011.4 0.0
15/03:30pm SSE 16 20 - - - - - - - 25.7 1011.4 0.0
15/03:00pm SSE 16 21 - - - - - - - 26.2 1011.6 0.0
15/02:30pm SSE 17 21 - - - - - - - 26.6 1011.8 0.0
15/02:00pm SSE 16 21 - - - - - - - 26.3 1012.1 0.0
15/01:30pm SSE 17 23 - - - - - - - 26.2 1012.4 0.0
15/01:00pm SSE 18 23 - - - - - - - 27.1 1012.9 0.0
15/12:30pm SSE 16 22 - - - - - - - 27.0 1013.4 0.0
15/12:00pm SSE 17 22 - - - - - - - 26.4 1013.9 0.0
15/11:30am S 17 23 - - - - - - - 25.9 1014.3 0.0
15/11:00am SSE 16 20 - - - - - - - 25.6 1014.4 0.0
15/10:30am SSE 14 19 - - - - - - - 26.6 1014.6 0.0
15/10:00am SSE 14 18 - - - - - - - 26.3 1014.7 0.0
15/09:30am SSE 16 19 - - - - - - - 25.4 1014.5 0.0
15/09:00am SSE 14 18 - - - - - - - 25.4 1014.4 0.0
15/08:30am SSE 13 17 - - - - - - - 25.3 1014.2 0.0
15/08:00am SSE 12 17 - - - - - - - 24.6 1014.1 0.0
15/07:30am SSE 11 15 - - - - - - - 23.4 1014.1 0.0
15/07:00am SSE 12 16 - - - - - - - 23.0 1013.8 0.0
15/06:30am SSE 11 15 - - - - - - - 22.6 1013.3 0.0
15/06:00am SSE 13 18 - - - - - - - 22.9 1013.0 0.0
15/05:30am SSE 11 15 - - - - - - - 22.7 1012.6 0.0
15/05:00am SE 12 15 - - - - - - - 22.8 1012.5 0.0
15/04:30am SE 10 15 - - - - - - - 22.8 1012.7 0.0
15/04:00am SE 10 14 - - - - - - - 23.0 1012.9 0.0
15/03:30am SE 12 16 - - - - - - - 22.9 1013.0 0.0
15/03:00am SE 11 17 - - - - - - - 22.8 1013.1 0.0
15/02:30am SSE 12 16 - - - - - - - 23.0 1013.2 0.0
15/02:00am SE 11 15 - - - - - - - 22.9 1013.3 0.0
15/01:30am SE 11 15 - - - - - - - 23.0 1013.2 0.0
15/01:00am SSE 10 14 - - - - - - - 22.9 1013.4 0.0
15/12:30am SE 9 12 - - - - - - - 22.8 1013.7 0.0
15/12:00am SE 11 15 - - - - - - - 23.1 1013.8 0.0
 
Date/Time
EST
Wind Sea
Height
m
Swell Vis
km
Cloud Weather Temp
°C
Press
MSL
hPa
Rain since
9am
mm
Dir  Spd
kts
Gust
kts
Height
m
Period
s
Dir
14/11:30pm SSE 11 14 - - - - - - - 23.2 1013.9 0.0
14/11:00pm SE 11 15 - - - - - - - 23.1 1013.9 0.0
14/10:30pm SE 11 16 - - - - - - - 23.3 1014.0 0.0
14/10:00pm SE 11 16 - - - - - - - 23.2 1014.2 0.0
14/09:30pm SE 11 15 - - - - - - - 23.3 1014.2 0.0
14/09:00pm SE 10 14 - - - - - - - 23.4 1014.0 0.0
14/08:30pm SE 10 14 - - - - - - - 23.3 1013.8 0.0
14/08:00pm SE 11 14 - - - - - - - 23.3 1013.5 0.0
14/07:30pm SE 11 15 - - - - - - - 23.5 1013.2 0.0
14/07:00pm SE 11 15 - - - - - - - 23.7 1012.9 0.0
14/06:30pm SE 12 17 - - - - - - - 23.7 1012.5 0.0
14/06:00pm SSE 11 16 - - - - - - - 23.6 1012.1 0.0
14/05:30pm SSE 15 20 - - - - - - - 24.4 1012.0 0.0
14/05:00pm SSE 14 19 - - - - - - - 24.7 1012.0 0.0
14/04:30pm SSE 15 20 - - - - - - - 24.9 1011.9 0.0
14/04:00pm SSE 15 20 - - - - - - - 26.0 1011.7 0.0
14/03:30pm SSE 17 23 - - - - - - - 25.9 1011.7 0.0
14/03:00pm SSE 16 23 - - - - - - - 26.1 1011.7 0.0
14/02:30pm SSE 16 22 - - - - - - - 26.7 1011.8 0.0
14/02:00pm SSE 17 23 - - - - - - - 26.9 1012.2 0.0
14/01:30pm SSE 18 22 - - - - - - - 26.7 1012.6 0.0
14/01:00pm SSE 18 22 - - - - - - - 26.8 1013.2 0.0
14/12:30pm SSE 16 21 - - - - - - - 27.5 1013.5 0.0
14/12:00pm SSE 18 23 - - - - - - - 26.9 1014.0 0.0
14/11:30am SSE 17 22 - - - - - - - 26.7 1014.3 0.0
14/11:00am SSE 18 23 - - - - - - - 26.4 1014.6 0.0
14/10:30am SSE 17 24 - - - - - - - 26.2 1014.8 0.0
14/10:00am SSE 17 22 - - - - - - - 25.4 1015.0 0.0
14/09:30am SSE 16 21 - - - - - - - 25.1 1015.0 0.0
14/09:00am SSE 15 20 - - - - - - - 24.9 1014.8 0.0
14/08:30am SSE 15 23 - - - - - - - 23.9 1014.6 0.0
14/08:00am SSE 15 19 - - - - - - - 23.4 1014.4 0.0
14/07:30am SSE 14 18 - - - - - - - 22.8 1014.3 0.0
14/07:00am SSE 14 19 - - - - - - - 22.3 1014.1 0.0
14/06:30am SSE 12 16 - - - - - - - 21.9 1013.8 0.0
14/06:00am SSE 12 16 - - - - - - - 22.2 1013.7 0.0
14/05:30am SSE 12 17 - - - - - - - 22.3 1013.4 0.0
14/05:00am SSE 12 16 - - - - - - - 22.3 1013.4 0.0
14/04:30am SSE 13 17 - - - - - - - 22.4 1013.1 0.0
14/04:00am SSE 12 16 - - - - - - - 22.7 1013.2 0.0
14/03:30am SSE 12 15 - - - - - - - 22.8 1013.3 0.0
14/03:00am SSE 13 18 - - - - - - - 22.9 1013.4 0.0
14/02:30am SSE 11 15 - - - - - - - 22.9 1013.6 0.0
14/02:00am SSE 11 16 - - - - - - - 22.8 1013.8 0.0
14/01:30am SSE 12 16 - - - - - - - 23.0 1014.0 0.0
14/01:00am SSE 13 17 - - - - - - - 23.1 1014.3 0.0
14/12:30am SSE 13 17 - - - - - - - 23.2 1014.6 0.0
14/12:00am SSE 11 14 - - - - - - - 23.3 1014.7 0.0
 
Date/Time
EST
Wind Sea
Height
m
Swell Vis
km
Cloud Weather Temp
°C
Press
MSL
hPa
Rain since
9am
mm
Dir  Spd
kts
Gust
kts
Height
m
Period
s
Dir
13/11:30pm SSE 12 16 - - - - - - - 23.6 1014.7 0.0
13/11:00pm SSE 12 16 - - - - - - - 23.6 1014.9 0.0
13/10:30pm SSE 12 18 - - - - - - - 23.5 1015.0 0.0
13/10:00pm SSE 13 17 - - - - - - - 23.6 1015.0 0.0
13/09:30pm SE 11 16 - - - - - - - 23.4 1014.8 0.0
13/09:00pm SSE 12 18 - - - - - - - 23.7 1014.8 0.0
13/08:30pm SSE 13 18 - - - - - - - 23.7 1014.6 0.0
13/08:00pm SSE 12 17 - - - - - - - 23.5 1014.2 0.0
13/07:30pm SSE 12 17 - - - - - - - 23.5 1014.0 0.0
13/07:00pm SSE 11 16 - - - - - - - 23.2 1013.7 0.0
13/06:30pm SSE 12 17 - - - - - - - 23.3 1013.3 0.0
13/06:00pm SSE 13 18 - - - - - - - 23.6 1013.0 0.0
13/05:30pm SSE 14 18 - - - - - - - 24.4 1013.1 0.0
13/05:00pm SSE 14 18 - - - - - - - 24.8 1013.0 0.0
13/04:30pm SSE 16 20 - - - - - - - 24.7 1012.9 0.0

Other formats

Comma delimited format used in spreadsheet applications
http://www.bom.gov.au/fwo/IDQ60701/IDQ60701.94188.axf

JavaScript Object Notation format (JSON) in row-major order
http://www.bom.gov.au/fwo/IDQ60701/IDQ60701.94188.json

Data quality

Most of these data are generated automatically and are frequently updated. Quality checks on data are not normally performed. It is possible for incorrect values to appear. Refer to information at About Latest Weather Observations and please check the disclaimer before using these data.